Time;durP1;ratioP1;P1;durP2;ratioP2;P2;SDS_P1;SDS_P2;PMS_P1;PMS_P2;Temp;Humidity;BMP_temperature;BMP_pressure;BME280_temperature;BME280_humidity;BME280_pressure;Samples;Min_cycle;Max_cycle;Signal;HPM_P1;HPM_P2
2022/10/16 00:00:40;;;;;;;2.60;1.65;;;;;;;;;;5072895;28;20035;-47
2022/10/16 00:03:07;;;;;;;1.55;1.27;;;;;;;;;;5075825;28;20032;-49
2022/10/16 00:05:33;;;;;;;1.35;1.25;;;;;;;;;;5085607;28;20025;-45
2022/10/16 00:07:59;;;;;;;1.75;1.20;;;;;;;;;;5072186;28;20060;-49
2022/10/16 00:10:25;;;;;;;1.20;1.10;;;;;;;;;;5064885;28;20016;-48
2022/10/16 00:12:51;;;;;;;1.80;1.15;;;;;;;;;;5072541;28;20032;-45
2022/10/16 00:15:17;;;;;;;1.40;1.08;;;;;;;;;;5084979;28;20404;-50
2022/10/16 00:17:43;;;;;;;1.55;1.33;;;;;;;;;;5084344;28;20385;-47
2022/10/16 00:20:09;;;;;;;1.25;1.00;;;;;;;;;;5084865;28;20020;-50
2022/10/16 00:22:35;;;;;;;2.45;1.55;;;;;;;;;;5084904;28;20107;-48
2022/10/16 00:25:01;;;;;;;1.75;1.20;;;;;;;;;;5086209;28;20137;-47
2022/10/16 00:27:27;;;;;;;1.13;1.00;;;;;;;;;;5088112;28;20122;-45
2022/10/16 00:29:54;;;;;;;1.58;0.98;;;;;;;;;;5088609;28;20221;-49
2022/10/16 00:32:20;;;;;;;1.35;0.98;;;;;;;;;;5088986;28;20209;-47
2022/10/16 00:34:46;;;;;;;1.02;0.93;;;;;;;;;;5086463;28;20108;-47
2022/10/16 00:37:13;;;;;;;0.82;0.80;;;;;;;;;;5088788;28;20032;-47
2022/10/16 00:39:40;;;;;;;1.00;0.90;;;;;;;;;;5088265;28;20027;-46
2022/10/16 00:42:07;;;;;;;0.90;0.75;;;;;;;;;;5088748;28;20107;-50
2022/10/16 00:44:44;;;;;;;1.83;0.88;;;;;;;;;;5089249;28;20020;-46
2022/10/16 00:47:12;;;;;;;0.90;0.57;;;;;;;;;;5088207;28;20124;-51
2022/10/16 00:49:38;;;;;;;0.98;0.98;;;;;;;;;;5087725;28;20632;-46
2022/10/16 00:52:05;;;;;;;1.02;0.80;;;;;;;;;;5088606;28;20058;-46
2022/10/16 00:54:33;;;;;;;0.90;0.90;;;;;;;;;;5089100;28;20024;-51
2022/10/16 00:57:01;;;;;;;1.20;0.98;;;;;;;;;;5089224;28;20115;-46
2022/10/16 00:59:31;;;;;;;1.77;1.20;;;;;;;;;;5088181;28;20034;-48
2022/10/16 01:01:58;;;;;;;1.55;1.20;;;;;;;;;;5069337;28;20094;-48
2022/10/16 01:04:25;;;;;;;1.67;1.00;;;;;;;;;;5067850;28;20033;-48
2022/10/16 01:06:54;;;;;;;1.30;1.15;;;;;;;;;;5067642;28;20037;-49
2022/10/16 01:09:23;;;;;;;1.48;0.95;;;;;;;;;;5067410;28;20052;-50
2022/10/16 01:11:56;;;;;;;1.85;1.10;;;;;;;;;;5084113;28;20031;-49
2022/10/16 01:14:36;;;;;;;2.22;1.52;;;;;;;;;;5087769;28;20495;-50
2022/10/16 01:17:13;;;;;;;2.38;1.10;;;;;;;;;;5088017;28;20513;-51
2022/10/16 01:19:38;;;;;;;1.10;1.00;;;;;;;;;;5087520;28;20055;-46
2022/10/16 01:22:06;;;;;;;0.95;0.90;;;;;;;;;;5087740;28;20473;-48
2022/10/16 01:24:39;;;;;;;1.40;1.10;;;;;;;;;;5088137;28;20350;-50
2022/10/16 01:27:13;;;;;;;1.00;0.90;;;;;;;;;;5087827;28;20426;-49
2022/10/16 01:29:42;;;;;;;1.45;1.20;;;;;;;;;;5087280;28;20376;-50
2022/10/16 01:32:32;;;;;;;1.00;0.80;;;;;;;;;;5087497;28;20058;-48
2022/10/16 01:35:02;;;;;;;1.65;1.40;;;;;;;;;;5067877;28;20036;-50
2022/10/16 01:37:33;;;;;;;1.35;1.00;;;;;;;;;;5087980;28;20039;-48
2022/10/16 01:40:01;;;;;;;1.38;0.80;;;;;;;;;;5087501;28;20028;-49
2022/10/16 01:42:31;;;;;;;0.80;0.80;;;;;;;;;;5087445;28;20039;-46
2022/10/16 01:44:58;;;;;;;1.63;1.10;;;;;;;;;;5087276;28;20031;-45
2022/10/16 01:47:25;;;;;;;1.83;1.10;;;;;;;;;;5085720;28;20034;-47
2022/10/16 01:49:52;;;;;;;1.88;1.17;;;;;;;;;;5088545;28;20024;-50
2022/10/16 01:52:22;;;;;;;1.75;1.33;;;;;;;;;;5078013;28;20487;-47
2022/10/16 01:54:50;;;;;;;2.45;1.30;;;;;;;;;;5088597;28;20064;-48
2022/10/16 01:57:17;;;;;;;2.55;1.63;;;;;;;;;;5088850;28;20368;-47
2022/10/16 01:59:44;;;;;;;3.85;1.70;;;;;;;;;;5087087;28;20031;-51
2022/10/16 02:02:11;;;;;;;2.83;1.60;;;;;;;;;;5088662;28;20050;-46
2022/10/16 02:04:44;;;;;;;3.85;1.55;;;;;;;;;;5084411;28;20067;-50
2022/10/16 02:07:10;;;;;;;2.53;1.65;;;;;;;;;;5075509;28;20038;-49
2022/10/16 02:09:37;;;;;;;3.33;1.73;;;;;;;;;;5088367;28;20031;-49
2022/10/16 02:12:07;;;;;;;2.38;1.60;;;;;;;;;;5088368;28;20474;-48
2022/10/16 02:14:33;;;;;;;3.17;1.77;;;;;;;;;;5088469;28;20095;-49
2022/10/16 02:16:59;;;;;;;2.75;1.50;;;;;;;;;;5087991;28;20125;-48
2022/10/16 02:19:25;;;;;;;2.00;1.60;;;;;;;;;;5079920;28;20502;-49
2022/10/16 02:21:54;;;;;;;2.35;1.33;;;;;;;;;;5068126;28;20039;-51
2022/10/16 02:24:20;;;;;;;2.00;1.40;;;;;;;;;;5068028;28;20025;-50
2022/10/16 02:26:50;;;;;;;3.17;1.40;;;;;;;;;;5067520;28;20025;-47
2022/10/16 02:29:18;;;;;;;1.42;1.33;;;;;;;;;;5067709;28;20032;-49
2022/10/16 02:31:50;;;;;;;2.88;1.70;;;;;;;;;;5068137;28;20094;-47
2022/10/16 02:34:17;;;;;;;3.50;1.30;;;;;;;;;;5076541;28;20028;-49
2022/10/16 02:36:44;;;;;;;1.70;1.23;;;;;;;;;;5088388;28;20212;-47
2022/10/16 02:39:11;;;;;;;1.67;1.27;;;;;;;;;;5088203;28;20028;-47
2022/10/16 02:41:37;;;;;;;1.33;1.20;;;;;;;;;;5087691;28;20054;-49
2022/10/16 02:44:03;;;;;;;2.25;1.40;;;;;;;;;;5087853;28;20111;-49
2022/10/16 02:46:29;;;;;;;2.33;1.38;;;;;;;;;;5087556;28;20107;-46
2022/10/16 02:48:55;;;;;;;2.75;1.45;;;;;;;;;;5078352;28;20035;-49
2022/10/16 02:51:21;;;;;;;1.70;1.27;;;;;;;;;;5067402;28;20029;-48
2022/10/16 02:53:48;;;;;;;1.90;1.50;;;;;;;;;;5067196;28;20021;-47
2022/10/16 02:56:14;;;;;;;2.83;1.60;;;;;;;;;;5068021;28;20090;-49
2022/10/16 02:58:40;;;;;;;1.48;1.30;;;;;;;;;;5066863;28;20090;-49
2022/10/16 03:01:06;;;;;;;2.47;1.20;;;;;;;;;;5067170;28;20039;-46
2022/10/16 03:03:32;;;;;;;2.20;1.38;;;;;;;;;;5074350;28;20422;-48
2022/10/16 03:05:58;;;;;;;1.58;1.30;;;;;;;;;;5087370;28;21120;-48
2022/10/16 03:08:25;;;;;;;1.48;1.30;;;;;;;;;;5086744;28;20545;-48
2022/10/16 03:10:51;;;;;;;1.20;1.10;;;;;;;;;;5086526;28;20115;-46
2022/10/16 03:13:20;;;;;;;1.95;1.50;;;;;;;;;;5087296;28;20020;-47
2022/10/16 03:15:46;;;;;;;3.67;1.70;;;;;;;;;;5086198;28;20020;-47
2022/10/16 03:18:13;;;;;;;1.33;1.20;;;;;;;;;;5087099;28;20020;-49
2022/10/16 03:20:39;;;;;;;1.30;1.20;;;;;;;;;;5086917;28;20506;-49
2022/10/16 03:23:06;;;;;;;1.10;1.00;;;;;;;;;;5087273;28;20028;-50
2022/10/16 03:25:32;;;;;;;1.42;1.05;;;;;;;;;;5085484;28;20571;-48
2022/10/16 03:27:58;;;;;;;2.47;1.55;;;;;;;;;;5086765;28;20484;-50
2022/10/16 03:30:24;;;;;;;1.65;1.42;;;;;;;;;;5086610;28;20051;-50
2022/10/16 03:32:53;;;;;;;3.05;1.27;;;;;;;;;;5087170;28;20024;-49
2022/10/16 03:35:20;;;;;;;1.40;1.27;;;;;;;;;;5087109;28;20043;-47
2022/10/16 03:37:46;;;;;;;1.20;1.10;;;;;;;;;;5087055;28;20376;-47
2022/10/16 03:40:12;;;;;;;1.20;0.90;;;;;;;;;;5086861;28;20526;-48
2022/10/16 03:42:38;;;;;;;1.13;0.80;;;;;;;;;;5086589;28;20024;-46
2022/10/16 03:45:04;;;;;;;1.52;1.20;;;;;;;;;;5086863;28;20041;-48
2022/10/16 03:47:32;;;;;;;1.15;1.05;;;;;;;;;;5086486;28;20024;-47
2022/10/16 03:49:59;;;;;;;0.93;0.90;;;;;;;;;;5086151;28;20028;-48
2022/10/16 03:52:25;;;;;;;1.08;1.00;;;;;;;;;;5086443;28;20103;-51
2022/10/16 03:54:51;;;;;;;1.73;0.98;;;;;;;;;;5085475;28;20032;-50
2022/10/16 03:57:17;;;;;;;2.42;1.42;;;;;;;;;;5086439;28;20082;-51
2022/10/16 03:59:43;;;;;;;1.73;1.30;;;;;;;;;;5084785;28;20475;-50
2022/10/16 04:02:09;;;;;;;2.10;1.30;;;;;;;;;;5086508;28;20423;-46
2022/10/16 04:04:35;;;;;;;1.42;1.33;;;;;;;;;;5086433;28;20036;-50
2022/10/16 04:07:01;;;;;;;1.80;1.17;;;;;;;;;;5086338;28;20020;-50
2022/10/16 04:09:28;;;;;;;1.50;1.10;;;;;;;;;;5085264;28;20411;-49
2022/10/16 04:11:54;;;;;;;1.13;1.02;;;;;;;;;;5086424;28;20484;-50
2022/10/16 04:14:20;;;;;;;1.70;1.40;;;;;;;;;;5085256;28;20020;-49
2022/10/16 04:16:46;;;;;;;1.40;1.30;;;;;;;;;;5086271;28;20388;-48
2022/10/16 04:19:12;;;;;;;1.30;1.20;;;;;;;;;;5086941;28;20028;-47
2022/10/16 04:21:38;;;;;;;1.02;1.00;;;;;;;;;;5086030;28;20027;-45
2022/10/16 04:24:04;;;;;;;2.28;1.70;;;;;;;;;;5086345;28;20024;-48
2022/10/16 04:26:30;;;;;;;3.17;1.77;;;;;;;;;;5085765;28;20035;-48
2022/10/16 04:28:56;;;;;;;2.22;1.50;;;;;;;;;;5085126;28;20119;-48
2022/10/16 04:31:22;;;;;;;1.75;1.08;;;;;;;;;;5085828;28;20024;-50
2022/10/16 04:33:48;;;;;;;2.55;1.30;;;;;;;;;;5086176;28;20061;-51
2022/10/16 04:36:15;;;;;;;1.27;1.00;;;;;;;;;;5086602;28;20020;-49
2022/10/16 04:38:41;;;;;;;1.90;1.20;;;;;;;;;;5086492;28;20089;-48
2022/10/16 04:41:07;;;;;;;0.80;0.80;;;;;;;;;;5085402;28;20067;-48
2022/10/16 04:43:34;;;;;;;1.48;1.23;;;;;;;;;;5085934;28;20744;-47
2022/10/16 04:46:00;;;;;;;1.30;1.20;;;;;;;;;;5086043;28;20032;-46
2022/10/16 04:48:26;;;;;;;1.10;1.00;;;;;;;;;;5085008;28;20052;-49
2022/10/16 04:50:52;;;;;;;1.38;1.00;;;;;;;;;;5086060;28;20021;-50
2022/10/16 04:53:18;;;;;;;1.08;0.95;;;;;;;;;;5085916;28;20031;-46
2022/10/16 04:55:45;;;;;;;1.20;1.10;;;;;;;;;;5086352;28;20475;-48
2022/10/16 04:58:11;;;;;;;1.58;0.90;;;;;;;;;;5086562;28;20035;-47
2022/10/16 05:00:38;;;;;;;1.40;0.80;;;;;;;;;;5085858;28;20684;-49
2022/10/16 05:03:07;;;;;;;1.13;1.02;;;;;;;;;;5085376;28;20056;-48
2022/10/16 05:05:33;;;;;;;1.42;1.10;;;;;;;;;;5085461;28;20028;-51
2022/10/16 05:07:59;;;;;;;1.80;1.35;;;;;;;;;;5085754;28;20483;-51
2022/10/16 05:10:25;;;;;;;1.50;1.17;;;;;;;;;;5085591;28;20620;-50
2022/10/16 05:12:51;;;;;;;1.98;1.70;;;;;;;;;;5088525;28;20039;-49
2022/10/16 05:15:18;;;;;;;1.83;1.05;;;;;;;;;;5089455;28;20637;-48
2022/10/16 05:17:44;;;;;;;1.30;1.15;;;;;;;;;;5089178;28;20031;-45
2022/10/16 05:20:10;;;;;;;1.13;1.02;;;;;;;;;;5089614;28;20024;-49
2022/10/16 05:22:37;;;;;;;1.20;1.10;;;;;;;;;;5089031;28;20028;-50
2022/10/16 05:25:03;;;;;;;1.83;1.20;;;;;;;;;;5089442;28;20494;-48
2022/10/16 05:27:29;;;;;;;1.50;1.30;;;;;;;;;;5088764;28;20039;-49
2022/10/16 05:29:55;;;;;;;2.60;1.40;;;;;;;;;;5089236;28;20028;-51
2022/10/16 05:32:21;;;;;;;3.70;1.33;;;;;;;;;;5088184;28;20013;-47
2022/10/16 05:34:47;;;;;;;1.60;1.40;;;;;;;;;;5089230;28;20375;-50
2022/10/16 05:37:13;;;;;;;4.25;1.42;;;;;;;;;;5089070;28;20035;-47
2022/10/16 05:39:39;;;;;;;2.88;1.50;;;;;;;;;;5075305;28;20031;-49
2022/10/16 05:42:05;;;;;;;2.17;1.48;;;;;;;;;;5089010;28;20060;-49
2022/10/16 05:44:32;;;;;;;1.48;1.20;;;;;;;;;;5085770;28;20037;-48
2022/10/16 05:46:58;;;;;;;1.33;1.20;;;;;;;;;;5079866;28;20025;-46
2022/10/16 05:49:24;;;;;;;1.27;1.17;;;;;;;;;;5077440;28;20399;-46
2022/10/16 05:51:50;;;;;;;1.35;1.25;;;;;;;;;;5089518;28;20028;-48
2022/10/16 05:54:16;;;;;;;1.15;1.05;;;;;;;;;;5086082;28;20426;-45
2022/10/16 05:56:42;;;;;;;0.98;0.98;;;;;;;;;;5081059;28;20024;-50
2022/10/16 05:59:08;;;;;;;2.10;1.17;;;;;;;;;;5088249;28;20084;-48
2022/10/16 06:01:35;;;;;;;1.75;1.15;;;;;;;;;;5088574;28;20069;-47
2022/10/16 06:04:01;;;;;;;0.90;0.80;;;;;;;;;;5088862;28;20104;-48
2022/10/16 06:06:28;;;;;;;1.60;1.02;;;;;;;;;;5088529;28;20024;-50
2022/10/16 06:08:54;;;;;;;1.15;1.02;;;;;;;;;;5077014;28;20104;-47
2022/10/16 06:11:22;;;;;;;1.38;1.10;;;;;;;;;;5071481;28;20031;-47
2022/10/16 06:13:56;;;;;;;1.73;1.10;;;;;;;;;;5088483;28;20055;-49
2022/10/16 06:16:22;;;;;;;1.38;1.15;;;;;;;;;;5088147;28;20055;-50
2022/10/16 06:18:48;;;;;;;1.25;1.00;;;;;;;;;;5088435;28;20032;-48
2022/10/16 06:21:17;;;;;;;1.65;1.45;;;;;;;;;;5085483;28;20530;-50
2022/10/16 06:23:43;;;;;;;1.55;1.42;;;;;;;;;;5087852;28;20548;-48
2022/10/16 06:26:11;;;;;;;2.03;1.20;;;;;;;;;;5087428;28;20046;-50
2022/10/16 06:28:37;;;;;;;0.60;0.60;;;;;;;;;;5087217;28;20809;-51
2022/10/16 06:31:03;;;;;;;5.45;1.15;;;;;;;;;;5082354;28;20090;-47
2022/10/16 06:33:29;;;;;;;1.25;0.90;;;;;;;;;;5079314;28;20472;-48
2022/10/16 06:36:07;;;;;;;0.98;0.90;;;;;;;;;;5087913;28;20495;-49
2022/10/16 06:38:34;;;;;;;0.88;0.88;;;;;;;;;;5080530;28;20107;-50
2022/10/16 06:41:00;;;;;;;0.85;0.82;;;;;;;;;;5067706;28;20038;-50
2022/10/16 06:43:26;;;;;;;1.13;1.02;;;;;;;;;;5075359;28;20036;-49
2022/10/16 06:45:56;;;;;;;0.82;0.80;;;;;;;;;;5087846;28;20085;-47
2022/10/16 06:48:23;;;;;;;1.05;0.98;;;;;;;;;;5087455;28;20097;-48
2022/10/16 06:51:09;;;;;;;1.13;1.00;;;;;;;;;;5087313;28;20021;-51
2022/10/16 06:53:36;;;;;;;1.52;1.40;;;;;;;;;;5080237;28;20035;-51
2022/10/16 06:56:32;;;;;;;2.20;1.33;;;;;;;;;;5087512;28;20402;-47
2022/10/16 06:58:58;;;;;;;1.13;1.02;;;;;;;;;;5068417;28;20079;-49
2022/10/16 07:01:25;;;;;;;0.95;0.88;;;;;;;;;;5076210;28;20103;-48
2022/10/16 07:03:51;;;;;;;2.05;1.10;;;;;;;;;;5082787;28;20032;-47
2022/10/16 07:06:18;;;;;;;1.27;1.00;;;;;;;;;;5071821;28;20115;-51
2022/10/16 07:08:45;;;;;;;1.80;0.85;;;;;;;;;;5084806;28;20108;-50
2022/10/16 07:11:13;;;;;;;0.95;0.90;;;;;;;;;;5087896;28;20410;-50
2022/10/16 07:13:40;;;;;;;0.73;0.73;;;;;;;;;;5087701;28;20038;-51
2022/10/16 07:16:13;;;;;;;1.20;1.10;;;;;;;;;;5086270;28;20429;-47
2022/10/16 07:18:40;;;;;;;1.38;1.00;;;;;;;;;;5084912;28;20396;-48
2022/10/16 07:21:06;;;;;;;1.00;0.90;;;;;;;;;;5072943;28;20024;-47
2022/10/16 07:23:32;;;;;;;0.80;0.80;;;;;;;;;;5074518;28;20028;-51
2022/10/16 07:25:58;;;;;;;1.23;1.02;;;;;;;;;;5064543;28;21449;-50
2022/10/16 07:28:24;;;;;;;1.30;1.20;;;;;;;;;;5087311;28;20465;-49
2022/10/16 07:30:50;;;;;;;0.80;0.80;;;;;;;;;;5076599;28;20038;-47
2022/10/16 07:33:16;;;;;;;2.60;1.15;;;;;;;;;;5081924;28;20108;-47
2022/10/16 07:35:52;;;;;;;1.42;1.33;;;;;;;;;;5084511;28;20032;-49
2022/10/16 07:38:19;;;;;;;1.13;1.02;;;;;;;;;;5083114;28;20028;-49
2022/10/16 07:40:45;;;;;;;1.30;1.20;;;;;;;;;;5085058;28;20030;-50
2022/10/16 07:43:11;;;;;;;2.50;1.30;;;;;;;;;;5088090;28;20032;-48
2022/10/16 07:45:38;;;;;;;1.58;1.33;;;;;;;;;;5087358;28;20503;-49
2022/10/16 07:48:04;;;;;;;1.95;1.40;;;;;;;;;;5079258;28;20067;-51
2022/10/16 07:50:30;;;;;;;2.20;1.27;;;;;;;;;;5076714;28;20024;-49
2022/10/16 07:52:56;;;;;;;1.27;1.17;;;;;;;;;;5085756;28;20036;-49
2022/10/16 07:55:22;;;;;;;1.50;1.20;;;;;;;;;;5086845;28;20438;-51
2022/10/16 07:57:48;;;;;;;1.42;1.17;;;;;;;;;;5083425;28;20568;-49
2022/10/16 08:00:14;;;;;;;1.48;1.10;;;;;;;;;;5083269;28;20573;-50
2022/10/16 08:02:40;;;;;;;1.38;1.00;;;;;;;;;;5075878;28;20416;-52
2022/10/16 08:05:07;;;;;;;1.35;1.10;;;;;;;;;;5067153;28;20063;-50
2022/10/16 08:07:33;;;;;;;1.38;0.95;;;;;;;;;;5075468;28;20057;-48
2022/10/16 08:10:00;;;;;;;1.33;1.00;;;;;;;;;;5072683;28;20024;-51
2022/10/16 08:12:27;;;;;;;0.82;0.80;;;;;;;;;;5082147;28;20111;-48
2022/10/16 08:14:53;;;;;;;1.45;0.95;;;;;;;;;;5075682;28;20074;-46
2022/10/16 08:17:19;;;;;;;2.30;1.40;;;;;;;;;;5069788;28;20043;-47
2022/10/16 08:19:48;;;;;;;2.65;1.08;;;;;;;;;;5084025;28;20085;-48
2022/10/16 08:22:14;;;;;;;1.27;1.17;;;;;;;;;;5086462;28;20119;-49
2022/10/16 08:24:41;;;;;;;0.90;0.90;;;;;;;;;;5085730;28;20032;-48
2022/10/16 08:27:08;;;;;;;1.40;1.20;;;;;;;;;;5086532;28;20090;-47
2022/10/16 08:29:34;;;;;;;1.10;1.02;;;;;;;;;;5087284;28;20021;-50
2022/10/16 08:32:01;;;;;;;0.90;0.90;;;;;;;;;;5087335;28;20411;-49
2022/10/16 08:34:28;;;;;;;2.42;1.17;;;;;;;;;;5075530;28;20439;-48
2022/10/16 08:36:54;;;;;;;1.77;1.02;;;;;;;;;;5073646;28;20036;-46
2022/10/16 08:39:20;;;;;;;0.80;0.80;;;;;;;;;;5085954;28;20032;-51
2022/10/16 08:41:49;;;;;;;1.30;1.20;;;;;;;;;;5085868;28;20039;-49
2022/10/16 08:44:35;;;;;;;1.67;1.20;;;;;;;;;;5083419;28;20060;-49
2022/10/16 08:47:18;;;;;;;1.55;1.27;;;;;;;;;;5087254;28;20046;-50
2022/10/16 08:49:54;;;;;;;1.42;1.10;;;;;;;;;;5086926;28;20032;-50
2022/10/16 08:52:20;;;;;;;2.35;1.40;;;;;;;;;;5083348;28;20032;-46
2022/10/16 08:54:49;;;;;;;1.92;1.17;;;;;;;;;;5086578;28;20026;-48
2022/10/16 08:57:18;;;;;;;1.10;1.00;;;;;;;;;;5083268;28;20028;-50
2022/10/16 08:59:45;;;;;;;2.55;1.23;;;;;;;;;;5088933;28;20126;-48
2022/10/16 09:02:24;;;;;;;2.05;1.33;;;;;;;;;;5089611;28;20326;-46
2022/10/16 09:04:50;;;;;;;1.13;0.95;;;;;;;;;;5088316;28;20044;-47
2022/10/16 09:07:21;;;;;;;1.35;1.05;;;;;;;;;;5089485;28;20024;-49
2022/10/16 09:10:09;;;;;;;0.80;0.80;;;;;;;;;;5074174;28;20047;-47
2022/10/16 09:12:47;;;;;;;1.38;1.00;;;;;;;;;;5088004;28;20027;-48
2022/10/16 09:15:16;;;;;;;1.35;1.10;;;;;;;;;;5088679;28;20033;-49
2022/10/16 09:17:51;;;;;;;1.83;1.05;;;;;;;;;;5088394;28;20562;-46
2022/10/16 09:20:36;;;;;;;1.75;1.08;;;;;;;;;;5085176;28;20413;-49
2022/10/16 09:23:02;;;;;;;1.05;0.95;;;;;;;;;;5073772;28;20052;-50
2022/10/16 09:25:29;;;;;;;1.17;1.00;;;;;;;;;;5085235;28;20555;-51
2022/10/16 09:27:55;;;;;;;1.10;0.90;;;;;;;;;;5087688;28;20099;-48
2022/10/16 09:30:23;;;;;;;0.75;0.75;;;;;;;;;;5088255;28;20088;-46
2022/10/16 09:32:51;;;;;;;1.48;1.10;;;;;;;;;;5080152;28;20037;-49
2022/10/16 09:35:19;;;;;;;2.00;1.27;;;;;;;;;;5080708;28;20028;-50
2022/10/16 09:37:47;;;;;;;1.08;0.98;;;;;;;;;;5085383;28;20020;-49
2022/10/16 09:40:14;;;;;;;1.35;1.25;;;;;;;;;;5068580;28;20037;-50
2022/10/16 09:42:40;;;;;;;1.80;1.20;;;;;;;;;;5085967;28;20046;-51
2022/10/16 09:45:07;;;;;;;2.08;1.40;;;;;;;;;;5086346;28;20463;-48
2022/10/16 09:47:40;;;;;;;2.97;1.40;;;;;;;;;;5087529;28;20056;-50
2022/10/16 09:50:20;;;;;;;6.10;1.35;;;;;;;;;;5088277;28;20024;-48
2022/10/16 09:52:47;;;;;;;1.48;1.20;;;;;;;;;;5087359;28;20433;-48
2022/10/16 09:55:14;;;;;;;1.33;1.13;;;;;;;;;;5087378;28;20027;-49
2022/10/16 09:57:53;;;;;;;1.40;1.30;;;;;;;;;;5070142;28;20028;-47
2022/10/16 10:00:20;;;;;;;1.52;1.40;;;;;;;;;;5079895;28;20538;-49
2022/10/16 10:02:46;;;;;;;2.60;1.50;;;;;;;;;;5074358;28;20499;-51
2022/10/16 10:05:21;;;;;;;3.20;1.38;;;;;;;;;;5089007;28;20421;-51
2022/10/16 10:07:54;;;;;;;1.90;1.35;;;;;;;;;;5089240;28;20038;-52
2022/10/16 10:10:22;;;;;;;2.28;1.20;;;;;;;;;;5088497;28;20035;-48
2022/10/16 10:12:48;;;;;;;3.08;1.30;;;;;;;;;;5084167;28;20372;-51
2022/10/16 10:15:21;;;;;;;3.42;1.25;;;;;;;;;;5085444;28;20035;-49
2022/10/16 10:17:48;;;;;;;2.05;1.10;;;;;;;;;;5081985;28;20035;-46
2022/10/16 10:20:28;;;;;;;2.33;1.35;;;;;;;;;;5081825;28;20060;-48
2022/10/16 10:22:55;;;;;;;1.65;1.55;;;;;;;;;;5081556;28;20036;-51
2022/10/16 10:25:39;;;;;;;3.00;1.65;;;;;;;;;;5083670;28;20035;-50
2022/10/16 10:28:18;;;;;;;2.27;1.30;;;;;;;;;;5083646;28;20084;-51
2022/10/16 10:31:11;;;;;;;2.28;1.50;;;;;;;;;;5080352;28;20024;-50
2022/10/16 10:33:46;;;;;;;1.83;1.65;;;;;;;;;;5078020;28;20047;-50
2022/10/16 10:36:31;;;;;;;2.15;1.45;;;;;;;;;;5085597;28;20032;-48
2022/10/16 10:38:59;;;;;;;2.25;1.35;;;;;;;;;;5084467;28;20069;-50
2022/10/16 10:41:44;;;;;;;1.23;1.13;;;;;;;;;;5088256;28;20024;-52
2022/10/16 10:44:10;;;;;;;2.15;1.50;;;;;;;;;;5082470;28;20115;-50
2022/10/16 10:46:39;;;;;;;1.27;1.13;;;;;;;;;;5087555;28;20028;-47
2022/10/16 10:49:14;;;;;;;1.85;1.35;;;;;;;;;;5086397;28;20679;-52
2022/10/16 10:51:40;;;;;;;2.38;1.20;;;;;;;;;;5086812;28;20020;-52
2022/10/16 10:54:29;;;;;;;2.33;1.58;;;;;;;;;;5084518;28;20112;-50
2022/10/16 10:57:00;;;;;;;2.83;1.30;;;;;;;;;;5082684;28;20082;-52
2022/10/16 10:59:26;;;;;;;1.75;1.10;;;;;;;;;;5079451;28;20056;-48
2022/10/16 11:02:07;;;;;;;1.77;1.45;;;;;;;;;;5082952;28;20067;-51
2022/10/16 11:04:46;;;;;;;3.75;1.50;;;;;;;;;;5086806;28;20028;-48
2022/10/16 11:07:27;;;;;;;2.70;1.60;;;;;;;;;;5067824;28;20392;-52
2022/10/16 11:10:03;;;;;;;2.05;1.52;;;;;;;;;;5068499;28;20130;-48
2022/10/16 11:12:34;;;;;;;2.22;1.45;;;;;;;;;;5085073;28;20107;-49
2022/10/16 11:15:19;;;;;;;2.08;1.52;;;;;;;;;;5087829;28;20073;-50
2022/10/16 11:17:45;;;;;;;2.72;1.30;;;;;;;;;;5085410;28;20111;-49
2022/10/16 11:20:16;;;;;;;3.75;1.20;;;;;;;;;;5077945;28;20482;-47
2022/10/16 11:22:57;;;;;;;2.28;1.25;;;;;;;;;;5079435;28;20028;-49
2022/10/16 11:25:26;;;;;;;1.90;1.60;;;;;;;;;;5069970;28;20419;-48
2022/10/16 11:28:01;;;;;;;2.03;1.23;;;;;;;;;;5074290;28;20127;-50
2022/10/16 11:30:30;;;;;;;2.85;1.52;;;;;;;;;;5078709;28;20052;-50
2022/10/16 11:33:08;;;;;;;4.38;1.77;;;;;;;;;;5087029;28;20502;-50
2022/10/16 11:35:37;;;;;;;1.95;1.35;;;;;;;;;;5085620;28;20027;-49
2022/10/16 11:38:04;;;;;;;4.85;1.70;;;;;;;;;;5087173;28;20118;-50
2022/10/16 11:40:34;;;;;;;2.60;1.60;;;;;;;;;;5086164;28;20762;-47
2022/10/16 11:43:19;;;;;;;3.33;1.40;;;;;;;;;;5066914;28;20032;-52
2022/10/16 11:45:47;;;;;;;6.38;1.70;;;;;;;;;;5072980;28;20476;-51
2022/10/16 11:48:19;;;;;;;3.35;1.70;;;;;;;;;;5087115;28;20028;-51
2022/10/16 11:50:45;;;;;;;2.33;1.48;;;;;;;;;;5075895;28;20103;-46
2022/10/16 11:53:17;;;;;;;2.03;1.30;;;;;;;;;;5079614;28;20545;-49
2022/10/16 11:55:44;;;;;;;6.78;1.88;;;;;;;;;;5079412;28;20036;-51
2022/10/16 11:58:29;;;;;;;5.40;1.88;;;;;;;;;;5081672;28;20042;-52
2022/10/16 12:00:55;;;;;;;1.70;1.30;;;;;;;;;;5080017;28;20339;-49
2022/10/16 12:03:37;;;;;;;3.28;1.42;;;;;;;;;;5085703;28;20618;-50
2022/10/16 12:06:03;;;;;;;4.50;1.55;;;;;;;;;;5073452;28;20048;-50
2022/10/16 12:08:29;;;;;;;2.08;1.50;;;;;;;;;;5072896;28;20020;-47
2022/10/16 12:11:06;;;;;;;3.67;1.70;;;;;;;;;;5084757;28;20028;-48
2022/10/16 12:13:37;;;;;;;2.88;1.75;;;;;;;;;;5075092;28;20107;-49
2022/10/16 12:16:12;;;;;;;3.97;2.00;;;;;;;;;;5069990;28;20150;-51
2022/10/16 12:18:42;;;;;;;1.67;1.50;;;;;;;;;;5078793;28;20050;-52
2022/10/16 12:21:08;;;;;;;3.38;1.60;;;;;;;;;;5088540;28;20028;-52
2022/10/16 12:23:38;;;;;;;3.53;1.75;;;;;;;;;;5085902;28;20035;-49
2022/10/16 12:26:05;;;;;;;3.08;1.70;;;;;;;;;;5073455;28;20122;-48
2022/10/16 12:28:33;;;;;;;5.50;2.13;;;;;;;;;;5082895;28;20024;-50
2022/10/16 12:31:01;;;;;;;4.82;1.75;;;;;;;;;;5090846;28;20024;-48
2022/10/16 12:33:34;;;;;;;3.40;1.88;;;;;;;;;;5090467;28;20070;-46
2022/10/16 12:36:02;;;;;;;3.50;2.00;;;;;;;;;;5074460;28;20111;-48
2022/10/16 12:38:36;;;;;;;5.07;2.22;;;;;;;;;;5082529;28;20051;-48
2022/10/16 12:41:08;;;;;;;4.38;1.70;;;;;;;;;;5089570;28;20042;-49
2022/10/16 12:43:42;;;;;;;5.80;2.42;;;;;;;;;;5069879;28;20029;-46
2022/10/16 12:46:11;;;;;;;4.40;1.77;;;;;;;;;;5072374;28;20036;-48
2022/10/16 12:48:38;;;;;;;2.97;1.45;;;;;;;;;;5077995;28;20535;-46
2022/10/16 12:51:25;;;;;;;5.07;2.13;;;;;;;;;;5077935;28;20029;-47
2022/10/16 12:54:10;;;;;;;5.03;2.55;;;;;;;;;;5084715;28;20070;-51
2022/10/16 12:56:48;;;;;;;4.55;1.70;;;;;;;;;;5077138;28;20032;-48
2022/10/16 12:59:25;;;;;;;3.00;1.80;;;;;;;;;;5089460;28;20024;-49
2022/10/16 13:02:07;;;;;;;3.78;1.70;;;;;;;;;;5086953;28;20032;-51
2022/10/16 13:04:52;;;;;;;2.95;2.05;;;;;;;;;;5090662;28;20111;-47
2022/10/16 13:07:18;;;;;;;3.58;2.10;;;;;;;;;;5086787;28;20036;-48
2022/10/16 13:10:02;;;;;;;4.03;2.00;;;;;;;;;;5083641;28;20020;-50
2022/10/16 13:12:31;;;;;;;6.25;2.13;;;;;;;;;;5088656;28;20028;-50
2022/10/16 13:15:10;;;;;;;1.83;1.65;;;;;;;;;;5090101;28;20052;-48
2022/10/16 13:17:40;;;;;;;2.45;1.67;;;;;;;;;;5089096;28;20034;-50
2022/10/16 13:20:07;;;;;;;2.15;1.60;;;;;;;;;;5089431;28;20028;-50
2022/10/16 13:22:45;;;;;;;2.13;1.75;;;;;;;;;;5090132;28;20062;-49
2022/10/16 13:25:14;;;;;;;2.75;1.50;;;;;;;;;;5090059;28;20028;-48
2022/10/16 13:27:40;;;;;;;4.90;2.40;;;;;;;;;;5089551;28;20047;-47
2022/10/16 13:30:16;;;;;;;4.85;1.83;;;;;;;;;;5090098;28;20505;-49
2022/10/16 13:32:45;;;;;;;4.05;1.77;;;;;;;;;;5089217;28;20056;-52
2022/10/16 13:35:21;;;;;;;3.58;1.90;;;;;;;;;;5089895;28;20388;-49
2022/10/16 13:37:48;;;;;;;2.70;1.67;;;;;;;;;;5089719;28;20053;-52
2022/10/16 13:40:24;;;;;;;2.03;1.58;;;;;;;;;;5088795;28;20040;-51
2022/10/16 13:42:51;;;;;;;3.80;1.60;;;;;;;;;;5089759;28;20035;-47
2022/10/16 13:45:18;;;;;;;4.63;1.83;;;;;;;;;;5089628;28;20475;-48
2022/10/16 13:47:44;;;;;;;2.65;1.45;;;;;;;;;;5089446;28;20028;-50
2022/10/16 13:50:15;;;;;;;2.65;1.33;;;;;;;;;;5089702;28;20027;-49
2022/10/16 13:52:41;;;;;;;2.25;1.40;;;;;;;;;;5089459;28;20445;-50
2022/10/16 13:55:14;;;;;;;2.65;1.55;;;;;;;;;;5083841;28;20028;-48
2022/10/16 13:57:41;;;;;;;1.95;1.40;;;;;;;;;;5086855;28;20078;-50
2022/10/16 14:00:20;;;;;;;2.90;1.90;;;;;;;;;;5082247;28;20056;-50
2022/10/16 14:02:51;;;;;;;3.70;1.80;;;;;;;;;;5068909;28;20036;-52
2022/10/16 14:05:17;;;;;;;2.40;1.80;;;;;;;;;;5068999;28;20020;-48
2022/10/16 14:07:43;;;;;;;3.25;1.73;;;;;;;;;;5069164;28;20075;-50
2022/10/16 14:10:22;;;;;;;5.13;2.45;;;;;;;;;;5088371;28;20123;-51
2022/10/16 14:12:58;;;;;;;1.75;1.55;;;;;;;;;;5089487;28;20123;-51
2022/10/16 14:15:24;;;;;;;2.22;1.83;;;;;;;;;;5088724;28;20062;-50
2022/10/16 14:17:52;;;;;;;2.90;1.85;;;;;;;;;;5089207;28;20024;-49
2022/10/16 14:20:18;;;;;;;4.82;2.03;;;;;;;;;;5089079;28;20024;-51
2022/10/16 14:22:45;;;;;;;2.20;1.60;;;;;;;;;;5087928;28;20058;-50
2022/10/16 14:25:21;;;;;;;2.65;1.60;;;;;;;;;;5085387;28;20032;-48
2022/10/16 14:28:04;;;;;;;3.95;1.85;;;;;;;;;;5068656;28;20391;-49
2022/10/16 14:30:31;;;;;;;3.40;1.55;;;;;;;;;;5083388;28;20079;-49
2022/10/16 14:33:04;;;;;;;2.35;1.88;;;;;;;;;;5088835;28;20030;-50
2022/10/16 14:35:39;;;;;;;3.25;1.80;;;;;;;;;;5087647;28;20012;-46
2022/10/16 14:38:06;;;;;;;3.25;2.05;;;;;;;;;;5089327;28;20036;-47
2022/10/16 14:40:34;;;;;;;2.78;1.65;;;;;;;;;;5088804;28;20467;-51
2022/10/16 14:43:01;;;;;;;2.45;1.83;;;;;;;;;;5087728;28;20451;-49
2022/10/16 14:45:28;;;;;;;4.18;2.03;;;;;;;;;;5087830;28;20035;-49
2022/10/16 14:47:56;;;;;;;3.22;1.90;;;;;;;;;;5088623;28;20499;-51
2022/10/16 14:50:22;;;;;;;3.20;1.70;;;;;;;;;;5085935;28;20130;-49
2022/10/16 14:52:49;;;;;;;2.85;1.70;;;;;;;;;;5088220;28;20031;-49
2022/10/16 14:55:15;;;;;;;2.00;1.52;;;;;;;;;;5081424;28;20044;-51